Tropical Cyclones
[Index]
Main Index Home Page Stock Weather Photos Extreme Storms Discussion Storm News and Storm Chasing Reports Tropical Cyclones / Hurricanes / Typhoons Weather Data and Links Wild Fires / Bushfires Weather Observation Techniques Weather Picture Catalogue Tornado Pictures and Reports Stock Video Footage and DVDs for sale
Season 1996-1997 Tropical Cyclone NICHOLAS Track Map
Season 1996-1997 Summaries: [BoM-AU] [JTWC-AU] [JTWC-SIO] [JTWC-SPAC] [JTWC-SH]
<<- Previous TC | JTWC 1996-1997 Season | Next TC ->>

click for intensity scale information  Lat/long Grid: Show Hide

 Date Labels: Show Hide

Joint Typhoon Warning Centre Cyclone Data

Name: NICHOLAS

10 Dec 1996 12:00 UTC to 17 Dec 1996 06:00 UTC

    date/time    lat    long     hPa   cat  kts
1996-12-10 12    8.7   129.0                  20          
1996-12-10 18    8.9   128.2                  20          
1996-12-11 00    9.2   127.4                  20          
1996-12-11 06    9.5   126.7                  20          
1996-12-11 12    9.8   126.2                  20          
1996-12-11 18   10.2   125.8                  20          
1996-12-12 00   10.6   125.4                  20          
1996-12-12 06   10.9   125.1                  20          
1996-12-12 12   11.2   124.9                  20          
1996-12-12 18   11.6   124.7                  25          
1996-12-13 00   12.0   124.4                  30          
1996-12-13 06   12.6   124.1                  35          
1996-12-13 12   13.3   123.9                  35          
1996-12-13 18   14.0   123.8            1     40          
1996-12-14 00   14.7   123.8            1     45          
1996-12-14 06   15.4   123.8            1     45          
1996-12-14 12   16.1   123.8            1     45          
1996-12-14 18   16.7   123.7            1     45          
1996-12-15 00   17.2   123.4                  35          
1996-12-15 06   17.6   123.4                  30          
1996-12-15 12   18.1   123.7                  30          
1996-12-15 18   18.6   124.0                  30          
1996-12-16 00   19.0   124.4                  25          
1996-12-16 06   19.3   124.9                  25          
1996-12-16 12   19.5   125.5                  25          
1996-12-16 18   19.6   126.1                  25          
1996-12-17 00   19.9   126.6                  20          
1996-12-17 06   20.3   127.1                  15          
Winds are 1-min average.

Tropical cyclone tracks developed by Michael Bath using data from the Joint Typhoon Warning Centre Best Tracks and Google Maps.


[Australian Severe Weather index] [Copyright Notice] [Email Contacts] [Search This Site] [Privacy Policy]
Document: tropical_cyclone_nicholas.htm Updated: 18 September 2016